NCAR-RAP Real-Time Weather Data

Output produced by METARs form (08 May 2021  16:52 UTC)
found at http://weather.rap.ucar.edu/surface/
 
KLGA 081551Z 11012KT 10SM FEW025 BKN043 OVC050 12/05 A2986 RMK AO2 SLP110 T01170050
KLGA 081451Z 09009KT 10SM FEW030 OVC055 11/06 A2987 RMK AO2 RAE16 SLP113 P0001 60001 T01060056 53007
KLGA 081351Z 09008KT 9SM -RA FEW030 BKN055 OVC080 11/06 A2986 RMK AO2 RAB17 SLP111 P0000 T01060056
KLGA 081251Z 07007KT 10SM FEW030 BKN060 OVC075 11/04 A2985 RMK AO2 RAB26E44 SLP107 P0000 T01110044
KLGA 081151Z 06004KT 10SM FEW030 BKN075 BKN100 OVC150 11/04 A2984 RMK AO2 SLP106 T01110039 10117 20106 53012
KLGA 081051Z 08004KT 10SM BKN065 BKN100 OVC150 11/04 A2983 RMK AO2 SLP101 T01060044
KLGA 080951Z 07004KT 10SM BKN070 OVC150 11/04 A2982 RMK AO2 SLP096 T01060039
KLGA 080851Z 06006KT 10SM OVC100 11/03 A2981 RMK AO2 SLP094 T01060033 58014
KLGA 080751Z 13006KT 10SM OVC100 11/02 A2982 RMK AO2 SLP099 T01110017
KLGA 080651Z 13007KT 10SM OVC090 12/01 A2984 RMK AO2 SLP103 T01170011
KLGA 080551Z 11005KT 10SM BKN090 OVC250 12/02 A2985 RMK AO2 SLP108 T01170017 10139 20117 58009
KLGA 080451Z 10009KT 10SM SCT095 BKN250 12/01 A2986 RMK AO2 SLP113 T01170011 401670106
KLGA 080351Z COR 11009KT 10SM SCT095 BKN250 12/02 A2987 RMK AO2 SLP115 T01220017
KLGA 080251Z 12014KT 10SM OVC080 13/03 A2988 RMK AO2 SLP116 T01280028 51007
KLGA 080151Z 13008KT 10SM FEW050 SCT150 BKN230 13/02 A2987 RMK AO2 SLP116 T01280017
KLGA 080051Z 12009KT 10SM FEW050 SCT150 BKN230 13/06 A2986 RMK AO2 SLP111 T01280056
KLGA 072351Z COR 14012KT 10SM FEW060 BKN120 BKN250 14/06 A2985 RMK AO2 SLP109 T01390056 10167 20139 53002
KLGA 072251Z 15013KT 10SM FEW060 BKN250 14/06 A2985 RMK AO2 SLP107 T01440056
KLGA 072151Z 14010KT 10SM FEW060 SCT150 BKN250 16/05 A2985 RMK AO2 SLP107 T01560050
KLGA 072051Z 14010KT 10SM FEW060 BKN150 BKN250 16/02 A2985 RMK AO2 SLP107 T01610022 56008
KLGA 071951Z 05010KT 10SM FEW060 SCT150 BKN250 16/07 A2985 RMK AO2 SLP108 T01610072
KLGA 071851Z 05009KT 10SM FEW065 BKN250 17/04 A2986 RMK AO2 SLP110 T01670044
KLGA 071751Z 04011KT 10SM FEW065 OVC250 15/04 A2987 RMK AO2 SLP114 T01500039 10161 20122 58019
KLGA 071651Z 06011KT 10SM FEW065 BKN250 16/02 A2989 RMK AO2 SLP120 T01610017
KLGA 071551Z 05010KT 10SM FEW065 BKN250 16/02 A2991 RMK AO2 SLP129 T01610017
KLGA 071451Z 04010KT 10SM BKN250 15/00 A2993 RMK AO2 SLP134 T01500000 55001
KLGA 071351Z 04010KT 10SM BKN250 14/02 A2992 RMK AO2 SLP132 T01440017
KLGA 071251Z 04008KT 10SM SCT250 13/01 A2993 RMK AO2 SLP134 T01280011
KLGA 071151Z 05008KT 10SM FEW250 12/00 A2993 RMK AO2 SLP134 T01220000 10128 20106 53002
KLGA 071051Z 02006KT 10SM FEW250 11/M01 A2992 RMK AO2 SLP131 T01111006
KLGA 070951Z 02005KT 10SM FEW150 FEW250 11/M01 A2992 RMK AO2 SLP131 T01061011
KLGA 070851Z 01007KT 10SM SCT150 BKN250 11/M02 A2992 RMK AO2 SLP133 T01111017 57005
KLGA 070751Z 02005KT 10SM BKN180 BKN250 12/M02 A2993 RMK AO2 SLP134 T01171022
KLGA 070651Z 02007KT 10SM BKN180 BKN250 12/M02 A2994 RMK AO2 SLP136 T01221017
KLGA 070551Z 02005KT 10SM BKN200 BKN250 13/M02 A2994 RMK AO2 SLP138 T01281022 10172 20128 58005
KLGA 070451Z 35005KT 10SM SCT200 BKN250 13/M02 A2995 RMK AO2 SLP142 T01331017 401890111
KLGA 070351Z 36004KT 10SM SCT220 BKN250 14/M01 A2995 RMK AO2 SLP143 T01391006
KLGA 070251Z 35008KT 10SM BKN200 BKN250 15/M02 A2995 RMK AO2 SLP143 T01501022 51018
KLGA 070151Z 34011KT 10SM BKN210 16/M03 A2994 RMK AO2 SLP138 T01611028
KLGA 070051Z 34011KT 10SM BKN220 BKN250 17/00 A2992 RMK AO2 SLP132 T01670000
KLGA 062351Z 32008KT 10SM BKN200 BKN250 17/M01 A2990 RMK AO2 SLP125 T01721006 10189 20172 53008
KLGA 062251Z 33011KT 10SM BKN200 BKN250 18/M02 A2989 RMK AO2 SLP120 T01781017
KLGA 062151Z 32012KT 10SM BKN200 BKN250 18/M02 A2988 RMK AO2 SLP117 T01831017
KLGA 062051Z 32012KT 10SM BKN250 18/M02 A2988 RMK AO2 SLP117 T01831017 57010
KLGA 061951Z 29013G18KT 10SM BKN250 19/M01 A2989 RMK A02 SLP120 T01891011
KLGA 061851Z 33014KT 10SM FEW060 SCT250 18/00 A2989 RMK SLP123 T01780000
KLGA 061751Z 34012KT 10SM FEW060 FEW250 17/00 A2991 RMK SLP126 T01720000 10172 20122 58016